Yale, Virginia
Current Conditions -  °F | °C
As of 11:15 PM on Tuesday 21 Oct 2014 (Local Time) from KEMV Reporting Station
Scattered Clouds Scattered Clouds  
Wind Chill: 12°   Ceiling: Unl
Heat Index: 12°   Visibility: 10mi
Dew Point:   Wind: 5mph
Humidity: 82%   Direction: 280°W
Pressure: 29.91"   Gusts: NA
Location:  36.85°N, 77.29°W
Report Text: KEMV 220315Z AUTO 28004KT 10SM SCT120 12/09 A2991 RMK AO2
Loading
Personal Weather Stations






























Interactive Weather Map
Tropical Storm Tracking
New forecast layout! Learn more

10-Day Weather Forecast

Advertisements
Track Severe Weather on mobile